createdAt,value
2023-01-11T00:00:11.965Z,51.278637
2023-01-11T00:01:11.988Z,51.278622
2023-01-11T00:02:11.998Z,51.278568
2023-01-11T00:03:11.930Z,51.278568
2023-01-11T00:04:11.966Z,51.278545
2023-01-11T00:05:11.928Z,51.278568
2023-01-11T00:06:11.906Z,51.278564
2023-01-11T00:07:11.925Z,51.278591
2023-01-11T00:08:11.899Z,51.278610
2023-01-11T00:09:11.889Z,51.278599
2023-01-11T00:10:11.874Z,51.278606
2023-01-11T00:11:11.872Z,51.278572
2023-01-11T00:12:11.874Z,51.278553
2023-01-11T00:13:11.851Z,51.278545
2023-01-11T00:14:11.843Z,51.278553
2023-01-11T00:15:11.838Z,51.278576
2023-01-11T00:16:11.847Z,51.278564
2023-01-11T00:17:11.828Z,51.278599
2023-01-11T00:18:11.808Z,51.278572
2023-01-11T00:19:11.799Z,51.278591
2023-01-11T00:20:11.789Z,51.278606
2023-01-11T00:21:11.781Z,51.278576
2023-01-11T00:22:11.784Z,51.278564
2023-01-11T00:23:11.774Z,51.278542
2023-01-11T00:24:11.762Z,51.278572
2023-01-11T00:25:11.759Z,51.278568
2023-01-11T00:26:11.740Z,51.278595
2023-01-11T00:27:11.741Z,51.278614
2023-01-11T00:28:11.718Z,51.278561
2023-01-11T00:29:11.715Z,51.278637
2023-01-11T00:30:11.709Z,51.278645
2023-01-11T00:31:11.811Z,51.278648
2023-01-11T00:32:11.697Z,51.278606
2023-01-11T00:33:11.676Z,51.278572
2023-01-11T00:34:11.666Z,51.278576
2023-01-11T00:35:11.657Z,51.278618
2023-01-11T00:36:11.652Z,51.278591
2023-01-11T00:37:11.657Z,51.278572
2023-01-11T00:38:11.639Z,51.278591
2023-01-11T00:39:11.651Z,51.278599
2023-01-11T00:40:11.616Z,51.278618
2023-01-11T00:41:11.611Z,51.278614
2023-01-11T00:42:11.617Z,51.278595
2023-01-11T00:43:11.672Z,51.278553
2023-01-11T00:44:11.589Z,51.278538
2023-01-11T00:45:11.578Z,51.278599
2023-01-11T00:46:11.616Z,51.278576
2023-01-11T00:47:11.580Z,51.278564
2023-01-11T00:48:11.564Z,51.278591
2023-01-11T00:49:11.542Z,51.278591
2023-01-11T00:50:11.546Z,51.278591
2023-01-11T00:51:11.532Z,51.278599
2023-01-11T00:52:11.527Z,51.278587
2023-01-11T00:53:11.512Z,51.278618
2023-01-11T00:54:11.499Z,51.278603
2023-01-11T00:55:11.497Z,51.278637
2023-01-11T00:56:11.483Z,51.278625
2023-01-11T00:57:11.497Z,51.278595
2023-01-11T00:58:11.465Z,51.278576
2023-01-11T00:59:11.451Z,51.278553
2023-01-11T01:00:11.463Z,51.278564
2023-01-11T01:01:11.536Z,51.278591
2023-01-11T01:02:11.541Z,51.278603
2023-01-11T01:03:11.438Z,51.278599
2023-01-11T01:04:11.409Z,51.278542
2023-01-11T01:05:11.437Z,51.278568
2023-01-11T01:06:11.411Z,51.278606
2023-01-11T01:07:11.404Z,51.278595
2023-01-11T01:08:11.372Z,51.278580
2023-01-11T01:09:11.373Z,51.278637
2023-01-11T01:10:11.379Z,51.278656
2023-01-11T01:11:11.348Z,51.278675
2023-01-11T01:12:11.357Z,51.278572
2023-01-11T01:13:11.344Z,51.278652
2023-01-11T01:14:11.328Z,51.278580
2023-01-11T01:15:11.322Z,51.278580
2023-01-11T01:16:11.398Z,51.278641
2023-01-11T01:17:11.301Z,51.278625
2023-01-11T01:18:11.309Z,51.278584
2023-01-11T01:19:11.279Z,51.278553
2023-01-11T01:20:11.275Z,51.278587
2023-01-11T01:21:11.264Z,51.278580
2023-01-11T01:22:11.274Z,51.278641
2023-01-11T01:23:11.253Z,51.278618
2023-01-11T01:24:11.239Z,51.278679
2023-01-11T01:25:11.235Z,51.278645
2023-01-11T01:26:11.227Z,51.278610
2023-01-11T01:27:11.208Z,51.278599
2023-01-11T01:28:11.216Z,51.278618
2023-01-11T01:29:11.194Z,51.278633
2023-01-11T01:30:11.202Z,51.278618
2023-01-11T01:31:11.227Z,51.278591
2023-01-11T01:32:11.165Z,51.278606
2023-01-11T01:33:11.164Z,51.278622
2023-01-11T01:34:11.147Z,51.278599
2023-01-11T01:35:11.154Z,51.278713
2023-01-11T01:36:11.139Z,51.278732
2023-01-11T01:37:11.124Z,51.278664
2023-01-11T01:38:12.119Z,51.278667
2023-01-11T01:39:11.146Z,51.278633
2023-01-11T01:40:11.098Z,51.278618
2023-01-11T01:41:11.079Z,51.278614
2023-01-11T01:42:11.073Z,51.278584
2023-01-11T01:43:11.083Z,51.278648
2023-01-11T01:44:11.059Z,51.278599
2023-01-11T01:45:11.050Z,51.278610
2023-01-11T01:46:11.091Z,51.278629
2023-01-11T01:47:11.036Z,51.278645
2023-01-11T01:48:11.037Z,51.278698
2023-01-11T01:49:11.014Z,51.278656
2023-01-11T01:50:11.001Z,51.278671
2023-01-11T01:51:11.008Z,51.278637
2023-01-11T01:52:10.987Z,51.278648
2023-01-11T01:53:10.985Z,51.278728
2023-01-11T01:54:10.968Z,51.278645
2023-01-11T01:55:10.987Z,51.278671
2023-01-11T01:56:10.950Z,51.278633
2023-01-11T01:57:10.945Z,51.278637
2023-01-11T01:58:10.941Z,51.278606
2023-01-11T01:59:10.941Z,51.278633
2023-01-11T02:00:10.927Z,51.278625
2023-01-11T02:01:10.908Z,51.278614
2023-01-11T02:02:10.898Z,51.278603
2023-01-11T02:03:10.925Z,51.278637
2023-01-11T02:04:10.879Z,51.278664
2023-01-11T02:05:10.887Z,51.278652
2023-01-11T02:06:10.860Z,51.278660
2023-01-11T02:07:10.853Z,51.278645
2023-01-11T02:08:10.856Z,51.278656
2023-01-11T02:09:10.835Z,51.278652
2023-01-11T02:10:10.825Z,51.278637
2023-01-11T02:11:10.823Z,51.278633
2023-01-11T02:12:10.807Z,51.278618
2023-01-11T02:13:10.822Z,51.278671
2023-01-11T02:14:10.793Z,51.278637
2023-01-11T02:15:10.789Z,51.278622
2023-01-11T02:16:10.834Z,51.278641
2023-01-11T02:17:10.762Z,51.278641
2023-01-11T02:18:10.762Z,51.278702
2023-01-11T02:19:10.747Z,51.278652
2023-01-11T02:20:10.740Z,51.278641
2023-01-11T02:21:10.725Z,51.278637
2023-01-11T02:22:10.716Z,51.278667
2023-01-11T02:23:10.724Z,51.278671
2023-01-11T02:24:10.709Z,51.278645
2023-01-11T02:25:10.689Z,51.278675
2023-01-11T02:26:10.683Z,51.278690
2023-01-11T02:27:10.676Z,51.278637
2023-01-11T02:28:10.677Z,51.278645
2023-01-11T02:29:10.658Z,51.278648
2023-01-11T02:30:10.650Z,51.278618
2023-01-11T02:31:10.665Z,51.278648
2023-01-11T02:32:10.635Z,51.278564
2023-01-11T02:33:10.633Z,51.278564
2023-01-11T02:34:10.609Z,51.278637
2023-01-11T02:35:10.600Z,51.278687
2023-01-11T02:36:10.597Z,51.278679
2023-01-11T02:37:10.574Z,51.278664
2023-01-11T02:38:10.589Z,51.278690
2023-01-11T02:39:10.575Z,51.278725
2023-01-11T02:40:10.558Z,51.278698
2023-01-11T02:41:10.558Z,51.278618
2023-01-11T02:42:10.539Z,51.278618
2023-01-11T02:43:10.547Z,51.278622
2023-01-11T02:44:10.522Z,51.278637
2023-01-11T02:45:10.518Z,51.278656
2023-01-11T02:46:10.580Z,51.278652
2023-01-11T02:47:10.502Z,51.278557
2023-01-11T02:48:10.505Z,51.278622
2023-01-11T02:49:10.488Z,51.278580
2023-01-11T02:50:10.483Z,51.278679
2023-01-11T02:51:10.465Z,51.278664
2023-01-11T02:52:10.454Z,51.278629
2023-01-11T02:53:10.458Z,51.278584
2023-01-11T02:54:10.438Z,51.278522
2023-01-11T02:55:10.443Z,51.278576
2023-01-11T02:56:10.420Z,51.278667
2023-01-11T02:57:10.433Z,51.278599
2023-01-11T02:58:10.432Z,51.278553
2023-01-11T02:59:10.393Z,51.278564
2023-01-11T03:00:10.379Z,51.278584
2023-01-11T03:01:10.379Z,51.278618
2023-01-11T03:02:10.363Z,51.278549
2023-01-11T03:03:10.429Z,51.278496
2023-01-11T03:04:10.350Z,51.278587
2023-01-11T03:05:10.347Z,51.278553
2023-01-11T03:06:10.329Z,51.278477
2023-01-11T03:07:10.324Z,51.278442
2023-01-11T03:08:10.319Z,51.278446
2023-01-11T03:09:10.315Z,51.278511
2023-01-11T03:10:10.301Z,51.278561
2023-01-11T03:11:10.283Z,51.278542
2023-01-11T03:12:10.277Z,51.278675
2023-01-11T03:13:10.292Z,51.278641
2023-01-11T03:14:10.257Z,51.278603
2023-01-11T03:15:10.248Z,51.278606
2023-01-11T03:16:10.272Z,51.278595
2023-01-11T03:17:10.230Z,51.278625
2023-01-11T03:18:10.227Z,51.278591
2023-01-11T03:19:10.210Z,51.278584
2023-01-11T03:20:10.206Z,51.278580
2023-01-11T03:21:10.200Z,51.278561
2023-01-11T03:22:10.201Z,51.278584
2023-01-11T03:23:10.194Z,51.278587
2023-01-11T03:24:10.170Z,51.278603
2023-01-11T03:25:10.161Z,51.278599
2023-01-11T03:26:10.152Z,51.278538
2023-01-11T03:27:10.140Z,51.278549
2023-01-11T03:28:10.144Z,51.278584
2023-01-11T03:29:10.125Z,51.278580
2023-01-11T03:30:10.117Z,51.278561
2023-01-11T03:31:10.146Z,51.278595
2023-01-11T03:32:10.101Z,51.278591
2023-01-11T03:33:10.101Z,51.278591
2023-01-11T03:34:10.096Z,51.278561
2023-01-11T03:35:10.070Z,51.278580
2023-01-11T03:36:10.088Z,51.278591
2023-01-11T03:37:10.053Z,51.278538
2023-01-11T03:38:10.059Z,51.278587
2023-01-11T03:39:10.061Z,51.278564
2023-01-11T03:40:10.027Z,51.278561
2023-01-11T03:41:10.040Z,51.278557
2023-01-11T03:42:10.014Z,51.278595
2023-01-11T03:43:10.017Z,51.278584
2023-01-11T03:44:09.994Z,51.278568
2023-01-11T03:45:09.984Z,51.278557
2023-01-11T03:46:09.972Z,51.278530
2023-01-11T03:47:09.970Z,51.278576
2023-01-11T03:48:09.985Z,51.278530
2023-01-11T03:49:09.951Z,51.278553
2023-01-11T03:50:09.940Z,51.278538
2023-01-11T03:51:09.946Z,51.278599
2023-01-11T03:52:09.920Z,51.278580
2023-01-11T03:53:09.934Z,51.278576
2023-01-11T03:54:09.906Z,51.278595
2023-01-11T03:55:09.894Z,51.278557
2023-01-11T03:56:09.891Z,51.278545
2023-01-11T03:57:09.889Z,51.278549
2023-01-11T03:58:09.886Z,51.278545
2023-01-11T03:59:10.843Z,51.278576
2023-01-11T04:00:09.859Z,51.278549
2023-01-11T04:01:09.860Z,51.278568
2023-01-11T04:02:09.837Z,51.278572
2023-01-11T04:03:09.838Z,51.278526
2023-01-11T04:04:09.839Z,51.278526
2023-01-11T04:05:09.827Z,51.278538
2023-01-11T04:06:09.798Z,51.278572
2023-01-11T04:07:09.789Z,51.278580
2023-01-11T04:08:09.796Z,51.278614
2023-01-11T04:09:09.766Z,51.278648
2023-01-11T04:10:09.767Z,51.278648
2023-01-11T04:11:09.760Z,51.278667
2023-01-11T04:12:09.741Z,51.278667
2023-01-11T04:13:09.761Z,51.278561
2023-01-11T04:14:09.732Z,51.278542
2023-01-11T04:15:09.714Z,51.278595
2023-01-11T04:16:09.733Z,51.278618
2023-01-11T04:17:09.703Z,51.278618
2023-01-11T04:18:09.703Z,51.278580
2023-01-11T04:19:09.681Z,51.278603
2023-01-11T04:20:09.672Z,51.278660
2023-01-11T04:21:09.663Z,51.278709
2023-01-11T04:22:09.651Z,51.278595
2023-01-11T04:23:09.647Z,51.278599
2023-01-11T04:24:09.650Z,51.278538
2023-01-11T04:25:09.631Z,51.278538
2023-01-11T04:26:09.623Z,51.278545
2023-01-11T04:27:09.613Z,51.278542
2023-01-11T04:28:09.608Z,51.278545
2023-01-11T04:29:09.585Z,51.278454
2023-01-11T04:30:09.580Z,51.278580
2023-01-11T04:31:09.621Z,51.278713
2023-01-11T04:32:09.562Z,51.278633
2023-01-11T04:33:09.621Z,51.278538
2023-01-11T04:34:09.559Z,51.278427
2023-01-11T04:35:09.538Z,51.278484
2023-01-11T04:36:09.525Z,51.278473
2023-01-11T04:37:09.536Z,51.278580
2023-01-11T04:38:09.527Z,51.278641
2023-01-11T04:39:09.513Z,51.278698
2023-01-11T04:40:09.499Z,51.278599
2023-01-11T04:41:09.487Z,51.278568
2023-01-11T04:42:09.499Z,51.278542
2023-01-11T04:43:09.468Z,51.278576
2023-01-11T04:44:09.474Z,51.278496
2023-01-11T04:45:09.470Z,51.278549
2023-01-11T04:46:09.493Z,51.278469
2023-01-11T04:47:09.440Z,51.278439
2023-01-11T04:48:09.424Z,51.278511
2023-01-11T04:49:09.443Z,51.278522
2023-01-11T04:50:09.457Z,51.278549
2023-01-11T04:51:09.407Z,51.278606
2023-01-11T04:52:09.379Z,51.278622
2023-01-11T04:53:10.380Z,51.278606
2023-01-11T04:54:09.378Z,51.278496
2023-01-11T04:55:09.366Z,51.278526
2023-01-11T04:56:09.355Z,51.278477
2023-01-11T04:57:09.336Z,51.278450
2023-01-11T04:58:09.351Z,51.278492
2023-01-11T04:59:09.331Z,51.278572
2023-01-11T05:00:10.322Z,51.278584
2023-01-11T05:01:09.356Z,51.278458
2023-01-11T05:02:09.303Z,51.278469
2023-01-11T05:03:09.300Z,51.278549
2023-01-11T05:04:09.342Z,51.278496
2023-01-11T05:05:09.268Z,51.278603
2023-01-11T05:06:09.261Z,51.278656
2023-01-11T05:07:09.254Z,51.278553
2023-01-11T05:08:09.254Z,51.278484
2023-01-11T05:09:09.252Z,51.278538
2023-01-11T05:10:09.222Z,51.278515
2023-01-11T05:11:09.249Z,51.278542
2023-01-11T05:12:09.205Z,51.278553
2023-01-11T05:13:09.200Z,51.278584
2023-01-11T05:14:09.211Z,51.278580
2023-01-11T05:15:09.266Z,51.278511
2023-01-11T05:16:09.216Z,51.278473
2023-01-11T05:17:09.172Z,51.278538
2023-01-11T05:18:09.155Z,51.278641
2023-01-11T05:19:09.156Z,51.278553
2023-01-11T05:20:09.129Z,51.278568
2023-01-11T05:21:09.130Z,51.278587
2023-01-11T05:22:09.119Z,51.278584
2023-01-11T05:23:09.106Z,51.278477
2023-01-11T05:24:09.111Z,51.278534
2023-01-11T05:25:09.089Z,51.278557
2023-01-11T05:26:09.085Z,51.278545
2023-01-11T05:27:09.068Z,51.278591
2023-01-11T05:28:09.057Z,51.278545
2023-01-11T05:29:09.059Z,51.278580
2023-01-11T05:30:09.045Z,51.278591
2023-01-11T05:31:09.037Z,51.278557
2023-01-11T05:32:09.021Z,51.278526
2023-01-11T05:33:09.010Z,51.278542
2023-01-11T05:34:09.015Z,51.278599
2023-01-11T05:35:08.988Z,51.278484
2023-01-11T05:36:09.005Z,51.278545
2023-01-11T05:37:08.974Z,51.278656
2023-01-11T05:38:08.967Z,51.278576
2023-01-11T05:39:08.976Z,51.278557
2023-01-11T05:40:08.940Z,51.278572
2023-01-11T05:41:08.941Z,51.278580
2023-01-11T05:42:08.926Z,51.278545
2023-01-11T05:43:08.916Z,51.278553
2023-01-11T05:44:08.919Z,51.278564
2023-01-11T05:45:08.906Z,51.278557
2023-01-11T05:46:08.919Z,51.278572
2023-01-11T05:47:08.886Z,51.278564
2023-01-11T05:48:08.871Z,51.278587
2023-01-11T05:49:08.872Z,51.278530
2023-01-11T05:50:08.850Z,51.278477
2023-01-11T05:51:08.837Z,51.278553
2023-01-11T05:52:08.831Z,51.278572
2023-01-11T05:53:08.822Z,51.278561
2023-01-11T05:54:08.825Z,51.278534
2023-01-11T05:55:08.802Z,51.278542
2023-01-11T05:56:08.796Z,51.278553
2023-01-11T05:57:08.777Z,51.278557
2023-01-11T05:58:08.797Z,51.278553
2023-01-11T05:59:08.783Z,51.278561
2023-01-11T06:00:08.753Z,51.278641
2023-01-11T06:01:08.750Z,51.278610
2023-01-11T06:02:08.857Z,51.278568
2023-01-11T06:03:08.774Z,51.278576
2023-01-11T06:04:08.781Z,51.278568
2023-01-11T06:05:08.716Z,51.278553
2023-01-11T06:06:08.721Z,51.278568
2023-01-11T06:07:08.695Z,51.278557
2023-01-11T06:08:08.678Z,51.278568
2023-01-11T06:09:09.688Z,51.278564
2023-01-11T06:10:08.672Z,51.278591
2023-01-11T06:11:08.657Z,51.278587
2023-01-11T06:12:08.660Z,51.278610
2023-01-11T06:13:08.761Z,51.278591
2023-01-11T06:14:08.635Z,51.278580
2023-01-11T06:15:08.621Z,51.278580
2023-01-11T06:16:08.685Z,51.278606
2023-01-11T06:17:08.604Z,51.278572
2023-01-11T06:18:08.599Z,51.278652
2023-01-11T06:19:08.595Z,51.278603
2023-01-11T06:20:08.655Z,51.278656
2023-01-11T06:21:08.567Z,51.278614
2023-01-11T06:22:08.561Z,51.278618
2023-01-11T06:23:08.547Z,51.278645
2023-01-11T06:24:08.577Z,51.278648
2023-01-11T06:25:08.538Z,51.278652
2023-01-11T06:26:08.529Z,51.278584
2023-01-11T06:27:08.529Z,51.278568
2023-01-11T06:28:08.507Z,51.278610
2023-01-11T06:29:08.512Z,51.278561
2023-01-11T06:30:08.496Z,51.278614
2023-01-11T06:31:08.587Z,51.278595
2023-01-11T06:32:08.472Z,51.278595
2023-01-11T06:33:08.473Z,51.278587
2023-01-11T06:34:08.468Z,51.278591
2023-01-11T06:35:08.463Z,51.278561
2023-01-11T06:36:08.438Z,51.278591
2023-01-11T06:37:08.435Z,51.278545
2023-01-11T06:38:08.425Z,51.278542
2023-01-11T06:39:08.418Z,51.278603
2023-01-11T06:40:08.404Z,51.278656
2023-01-11T06:41:08.493Z,51.278614
2023-01-11T06:42:08.388Z,51.278591
2023-01-11T06:43:08.377Z,51.278587
2023-01-11T06:44:08.391Z,51.278549
2023-01-11T06:45:08.357Z,51.278618
2023-01-11T06:46:08.394Z,51.278660
2023-01-11T06:47:08.351Z,51.278614
2023-01-11T06:48:08.338Z,51.278599
2023-01-11T06:49:08.340Z,51.278580
2023-01-11T06:50:08.328Z,51.278618
2023-01-11T06:51:08.307Z,51.278610
2023-01-11T06:52:08.299Z,51.278645
2023-01-11T06:53:08.291Z,51.278687
2023-01-11T06:54:08.285Z,51.278683
2023-01-11T06:55:09.292Z,51.278732
2023-01-11T06:56:08.290Z,51.278667
2023-01-11T06:57:08.256Z,51.278576
2023-01-11T06:58:08.243Z,51.278542
2023-01-11T06:59:08.241Z,51.278610
2023-01-11T07:00:08.226Z,51.278652
2023-01-11T07:01:08.245Z,51.278667
2023-01-11T07:02:08.211Z,51.278545
2023-01-11T07:03:08.201Z,51.278580
2023-01-11T07:04:08.201Z,51.278625
2023-01-11T07:05:08.259Z,51.278683
2023-01-11T07:06:08.171Z,51.278656
2023-01-11T07:07:08.165Z,51.278687
2023-01-11T07:08:08.150Z,51.278660
2023-01-11T07:09:08.165Z,51.278698
2023-01-11T07:10:08.140Z,51.278625
2023-01-11T07:11:08.157Z,51.278645
2023-01-11T07:12:08.129Z,51.278622
2023-01-11T07:13:08.113Z,51.278587
2023-01-11T07:14:08.138Z,51.278553
2023-01-11T07:15:08.098Z,51.278545
2023-01-11T07:16:08.118Z,51.278538
2023-01-11T07:17:08.081Z,51.278591
2023-01-11T07:18:08.071Z,51.278664
2023-01-11T07:19:08.081Z,51.278545
2023-01-11T07:20:08.073Z,51.278576
2023-01-11T07:21:08.068Z,51.278473
2023-01-11T07:22:08.039Z,51.278576
2023-01-11T07:23:08.030Z,51.278610
2023-01-11T07:24:08.034Z,51.278553
2023-01-11T07:25:08.005Z,51.278515
2023-01-11T07:26:08.044Z,51.278618
2023-01-11T07:27:07.994Z,51.278603
2023-01-11T07:28:08.022Z,51.278522
2023-01-11T07:29:07.982Z,51.278564
2023-01-11T07:30:09.775Z,51.278557
2023-01-11T07:31:08.992Z,51.278576
2023-01-11T07:32:07.954Z,51.278584
2023-01-11T07:33:07.935Z,51.278587
2023-01-11T07:34:07.932Z,51.278538
2023-01-11T07:35:07.941Z,51.278549
2023-01-11T07:36:07.910Z,51.278545
2023-01-11T07:37:07.905Z,51.278614
2023-01-11T07:38:08.884Z,51.278595
2023-01-11T07:39:07.906Z,51.278603
2023-01-11T07:40:07.891Z,51.278618
2023-01-11T07:41:07.869Z,51.278580
2023-01-11T07:42:07.876Z,51.278591
2023-01-11T07:43:07.849Z,51.278549
2023-01-11T07:44:07.841Z,51.278553
2023-01-11T07:45:07.835Z,51.278580
2023-01-11T07:46:07.917Z,51.278503
2023-01-11T07:47:07.837Z,51.278461
2023-01-11T07:48:07.806Z,51.278454
2023-01-11T07:49:07.794Z,51.278511
2023-01-11T07:50:07.808Z,51.278561
2023-01-11T07:51:07.787Z,51.278633
2023-01-11T07:52:07.783Z,51.278625
2023-01-11T07:53:07.762Z,51.278656
2023-01-11T07:54:07.750Z,51.278595
2023-01-11T07:55:07.783Z,51.278595
2023-01-11T07:56:07.739Z,51.278515
2023-01-11T07:57:07.722Z,51.278553
2023-01-11T07:58:07.710Z,51.278580
2023-01-11T07:59:08.700Z,51.278561
2023-01-11T08:00:07.716Z,51.278484
2023-01-11T08:01:07.688Z,51.278492
2023-01-11T08:02:07.690Z,51.278595
2023-01-11T08:03:07.916Z,51.278618
2023-01-11T08:04:07.675Z,51.278584
2023-01-11T08:05:07.663Z,51.278580
2023-01-11T08:06:07.643Z,51.278553
2023-01-11T08:07:07.630Z,51.278469
2023-01-11T08:08:07.616Z,51.278538
2023-01-11T08:09:07.609Z,51.278637
2023-01-11T08:10:07.618Z,51.278576
2023-01-11T08:11:07.592Z,51.278618
2023-01-11T08:12:07.588Z,51.278595
2023-01-11T08:13:07.567Z,51.278553
2023-01-11T08:14:07.563Z,51.278557
2023-01-11T08:15:07.562Z,51.278557
2023-01-11T08:16:07.650Z,51.278587
2023-01-11T08:17:07.533Z,51.278572
2023-01-11T08:18:07.530Z,51.278679
2023-01-11T08:19:07.516Z,51.278728
2023-01-11T08:20:07.535Z,51.278568
2023-01-11T08:21:07.503Z,51.278431
2023-01-11T08:22:07.512Z,51.278458
2023-01-11T08:23:07.466Z,51.278637
2023-01-11T08:24:08.466Z,51.278713
2023-01-11T08:25:07.477Z,51.278625
2023-01-11T08:26:07.445Z,51.278568
2023-01-11T08:27:07.551Z,51.278553
2023-01-11T08:28:07.460Z,51.278591
2023-01-11T08:29:07.523Z,51.278572
2023-01-11T08:30:07.420Z,51.278587
2023-01-11T08:31:07.557Z,51.278568
2023-01-11T08:32:07.399Z,51.278564
2023-01-11T08:33:07.401Z,51.278545
2023-01-11T08:34:07.394Z,51.278561
2023-01-11T08:35:07.379Z,51.278568
2023-01-11T08:36:07.367Z,51.278629
2023-01-11T08:37:07.348Z,51.278595
2023-01-11T08:38:07.334Z,51.278591
2023-01-11T08:39:07.327Z,51.278542
2023-01-11T08:40:07.330Z,51.278545
2023-01-11T08:41:07.301Z,51.278526
2023-01-11T08:42:07.301Z,51.278530
2023-01-11T08:43:07.309Z,51.278622
2023-01-11T08:44:07.270Z,51.278603
2023-01-11T08:45:07.285Z,51.278576
2023-01-11T08:46:07.349Z,51.278625
2023-01-11T08:47:07.251Z,51.278603
2023-01-11T08:48:07.237Z,51.278576
2023-01-11T08:49:07.232Z,51.278576
2023-01-11T08:50:07.226Z,51.278599
2023-01-11T08:51:07.219Z,51.278584
2023-01-11T08:52:07.213Z,51.278618
2023-01-11T08:53:07.197Z,51.278603
2023-01-11T08:54:07.192Z,51.278576
2023-01-11T08:55:08.213Z,51.278584
2023-01-11T08:56:07.171Z,51.278629
2023-01-11T08:57:07.150Z,51.278576
2023-01-11T08:58:07.141Z,51.278641
2023-01-11T08:59:07.141Z,51.278622
2023-01-11T09:00:07.133Z,51.278599
2023-01-11T09:01:07.154Z,51.278580
2023-01-11T09:02:07.102Z,51.278557
2023-01-11T09:03:07.142Z,51.278576
2023-01-11T09:04:15.822Z,51.278568
2023-01-11T09:05:09.100Z,51.278515
2023-01-11T09:06:07.078Z,51.278557
2023-01-11T09:07:07.057Z,51.278595
2023-01-11T09:08:07.053Z,51.278549
2023-01-11T09:09:07.036Z,51.278469
2023-01-11T09:10:07.053Z,51.278484
2023-01-11T09:11:07.018Z,51.278641
2023-01-11T09:12:07.004Z,51.278526
2023-01-11T09:13:07.026Z,51.278664
2023-01-11T09:14:06.997Z,51.278587
2023-01-11T09:15:06.997Z,51.278652
2023-01-11T09:16:07.023Z,51.278656
2023-01-11T09:17:07.001Z,51.278591
2023-01-11T09:18:07.580Z,51.278595
2023-01-11T09:19:06.944Z,51.278618
2023-01-11T09:20:06.963Z,51.278576
2023-01-11T09:21:06.923Z,51.278599
2023-01-11T09:22:06.918Z,51.278606
2023-01-11T09:23:06.908Z,51.278572
2023-01-11T09:24:06.908Z,51.278641
2023-01-11T09:25:06.904Z,51.278599
2023-01-11T09:26:06.876Z,51.278618
2023-01-11T09:27:06.906Z,51.278553
2023-01-11T09:28:06.864Z,51.278618
2023-01-11T09:29:06.902Z,51.278561
2023-01-11T09:30:06.848Z,51.278561
2023-01-11T09:31:06.838Z,51.278690
2023-01-11T09:32:06.821Z,51.278584
2023-01-11T09:33:06.817Z,51.278572
2023-01-11T09:34:06.838Z,51.278606
2023-01-11T09:35:06.801Z,51.278584
2023-01-11T09:36:06.786Z,51.278580
2023-01-11T09:37:07.037Z,51.278629
2023-01-11T09:38:06.768Z,51.278576
2023-01-11T09:39:06.747Z,51.278618
2023-01-11T09:40:06.779Z,51.278637
2023-01-11T09:41:06.734Z,51.278599
2023-01-11T09:42:06.723Z,51.278625
2023-01-11T09:43:06.718Z,51.278641
2023-01-11T09:44:06.713Z,51.278618
2023-01-11T09:45:06.714Z,51.278652
2023-01-11T09:46:08.546Z,51.278629
2023-01-11T09:47:07.682Z,51.278637
2023-01-11T09:48:06.667Z,51.278725
2023-01-11T09:49:06.664Z,51.278709
2023-01-11T09:50:06.665Z,51.278599
2023-01-11T09:51:06.645Z,51.278591
2023-01-11T09:52:06.628Z,51.278595
2023-01-11T09:53:06.647Z,51.278633
2023-01-11T09:54:06.618Z,51.278683
2023-01-11T09:55:06.622Z,51.278667
2023-01-11T09:56:06.588Z,51.278614
2023-01-11T09:57:06.585Z,51.278652
2023-01-11T09:58:06.580Z,51.278683
2023-01-11T09:59:06.579Z,51.278618
2023-01-11T10:00:06.607Z,51.278606
2023-01-11T10:01:06.597Z,51.278591
2023-01-11T10:02:06.544Z,51.278652
2023-01-11T10:03:06.530Z,51.278633
2023-01-11T10:04:07.525Z,51.278625
2023-01-11T10:05:06.580Z,51.278744
2023-01-11T10:06:06.496Z,51.278793
2023-01-11T10:07:06.495Z,51.278664
2023-01-11T10:18:25.527Z,51.278603
2023-01-11T10:18:29.968Z,51.278561
2023-01-11T10:18:30.101Z,51.278557
2023-01-11T10:18:34.250Z,51.278709
2023-01-11T10:18:40.120Z,51.278648
2023-01-11T10:20:08.449Z,51.278748
2023-01-11T10:21:06.345Z,51.278648
2023-01-11T10:22:06.351Z,51.278614
2023-01-11T10:23:06.333Z,51.278679
2023-01-11T10:24:06.317Z,51.278580
2023-01-11T10:25:06.339Z,51.278713
2023-01-11T10:26:06.304Z,51.278641
2023-01-11T10:27:06.382Z,51.278584
2023-01-11T10:28:06.287Z,51.278561
2023-01-11T10:29:06.274Z,51.278645
2023-01-11T10:30:06.274Z,51.278698
2023-01-11T10:31:06.291Z,51.278732
2023-01-11T10:32:06.298Z,51.278721
2023-01-11T10:33:06.243Z,51.278763
2023-01-11T10:34:06.249Z,51.278797
2023-01-11T10:35:06.239Z,51.278625
2023-01-11T10:36:06.220Z,51.278557
2023-01-11T10:37:06.284Z,51.278774
2023-01-11T10:38:06.231Z,51.278683
2023-01-11T10:39:06.164Z,51.278675
2023-01-11T10:40:07.178Z,51.278625
2023-01-11T10:41:06.158Z,51.278629
2023-01-11T10:42:06.148Z,51.278603
2023-01-11T10:43:06.153Z,51.278465
2023-01-11T10:44:06.153Z,51.278507
2023-01-11T10:45:06.151Z,51.278465
2023-01-11T10:47:06.099Z,51.278503
2023-01-11T10:48:06.105Z,51.278561
2023-01-11T10:49:06.083Z,51.278568
2023-01-11T10:50:06.609Z,51.278511
2023-01-11T10:51:06.077Z,51.278564
2023-01-11T10:52:06.054Z,51.278553
2023-01-11T10:53:06.048Z,51.278351
2023-01-11T10:55:07.022Z,51.278378
2023-01-11T10:56:06.052Z,51.278538
2023-01-11T10:57:07.215Z,51.278564
2023-01-11T10:58:07.054Z,51.278511
2023-01-11T10:59:05.984Z,51.278526
2023-01-11T11:00:05.975Z,51.278534
2023-01-11T11:01:06.014Z,51.278534
2023-01-11T11:02:06.043Z,51.278557
2023-01-11T11:03:05.945Z,51.278557
2023-01-11T11:04:05.955Z,51.278610
2023-01-11T11:05:05.928Z,51.278606
2023-01-11T11:06:05.939Z,51.278553
2023-01-11T11:07:05.929Z,51.278530
2023-01-11T11:08:05.928Z,51.278522
2023-01-11T11:09:05.900Z,51.278488
2023-01-11T11:10:05.905Z,51.278568
2023-01-11T11:11:05.924Z,51.278553
2023-01-11T11:12:05.874Z,51.278652
2023-01-11T11:13:05.859Z,51.278522
2023-01-11T11:14:05.843Z,51.278561
2023-01-11T11:15:05.841Z,51.278572
2023-01-11T11:16:05.887Z,51.278568
2023-01-11T11:17:05.823Z,51.278545
2023-01-11T11:18:05.832Z,51.278599
2023-01-11T11:19:05.793Z,51.278641
2023-01-11T11:20:05.790Z,51.278561
2023-01-11T11:21:05.788Z,51.278469
2023-01-11T11:22:05.780Z,51.278564
2023-01-11T11:23:05.757Z,51.278587
2023-01-11T11:24:05.750Z,51.278568
2023-01-11T11:25:05.735Z,51.278568
2023-01-11T11:26:05.738Z,51.278553
2023-01-11T11:27:05.787Z,51.278645
2023-01-11T11:28:05.707Z,51.278580
2023-01-11T11:29:05.706Z,51.278568
2023-01-11T11:30:05.698Z,51.278629
2023-01-11T11:31:05.698Z,51.278576
2023-01-11T11:32:05.678Z,51.278660
2023-01-11T11:33:05.663Z,51.278637